Time;durP1;ratioP1;P1;durP2;ratioP2;P2;SDS_P1;SDS_P2;PMS_P1;PMS_P2;Temp;Humidity;BMP_temperature;BMP_pressure;BME280_temperature;BME280_humidity;BME280_pressure;Samples;Min_cycle;Max_cycle;Signal;HPM_P1;HPM_P2
2021/01/15 00:01:35;;;;;;;60.80;21.60;;;;;;;1.00;100.00;100874.03;5055161;28;20522;-73
2021/01/15 00:04:01;;;;;;;55.40;22.00;;;;;;;1.01;100.00;100880.88;5051292;28;20493;-70
2021/01/15 00:06:27;;;;;;;59.67;24.80;;;;;;;1.00;100.00;100874.88;5051552;28;20165;-71
2021/01/15 00:08:54;;;;;;;63.33;24.70;;;;;;;1.05;100.00;100891.09;5069322;28;20398;-70
2021/01/15 00:11:23;;;;;;;62.13;27.10;;;;;;;1.02;100.00;100887.75;5051969;28;20408;-72
2021/01/15 00:13:50;;;;;;;64.90;28.63;;;;;;;1.14;100.00;100882.28;5058479;28;20828;-70
2021/01/15 00:16:27;;;;;;;67.93;29.43;;;;;;;1.13;100.00;100875.38;5050938;28;20441;-70
2021/01/15 00:18:53;;;;;;;64.10;27.40;;;;;;;1.10;100.00;100870.31;5054187;28;20536;-69
2021/01/15 00:21:20;;;;;;;61.60;23.20;;;;;;;1.07;100.00;100876.41;5051171;28;20454;-70
2021/01/15 00:23:45;;;;;;;79.23;51.77;;;;;;;1.15;100.00;100886.56;5054423;28;20783;-70
2021/01/15 00:26:18;;;;;;;66.40;36.17;;;;;;;1.13;100.00;100882.28;5051144;28;20977;-73
2021/01/15 00:28:44;;;;;;;67.27;25.47;;;;;;;1.10;100.00;100891.00;5065912;28;20149;-70
2021/01/15 00:31:09;;;;;;;62.10;27.73;;;;;;;1.12;100.00;100894.38;5069350;28;20395;-71
2021/01/15 00:33:35;;;;;;;61.20;23.50;;;;;;;1.10;100.00;100883.22;5069421;28;20419;-71
2021/01/15 00:36:01;;;;;;;62.73;25.87;;;;;;;1.11;100.00;100890.94;5069998;28;20547;-71
2021/01/15 00:38:26;;;;;;;57.60;23.33;;;;;;;1.07;100.00;100894.53;5068926;28;20184;-69
2021/01/15 00:40:59;;;;;;;63.00;20.63;;;;;;;1.08;100.00;100888.44;5069463;28;20261;-71
2021/01/15 00:43:25;;;;;;;57.33;21.57;;;;;;;1.13;100.00;100890.06;5068886;28;20239;-71
2021/01/15 00:45:50;;;;;;;55.97;22.20;;;;;;;1.16;100.00;100901.19;5054228;28;20447;-73
2021/01/15 00:48:16;;;;;;;75.97;52.47;;;;;;;1.12;100.00;100899.56;5049484;28;20254;-71
2021/01/15 00:50:41;;;;;;;63.73;34.50;;;;;;;1.14;100.00;100902.97;5051010;28;20169;-71
2021/01/15 00:53:07;;;;;;;65.57;44.40;;;;;;;1.08;100.00;100911.72;5050681;28;20542;-70
2021/01/15 00:55:32;;;;;;;87.00;65.50;;;;;;;1.10;100.00;100907.38;5050504;28;20230;-70
2021/01/15 00:57:58;;;;;;;71.53;44.10;;;;;;;1.08;100.00;100903.97;5052756;28;20157;-71
2021/01/15 01:00:23;;;;;;;66.50;41.60;;;;;;;1.09;100.00;100904.81;5068868;28;20195;-70
2021/01/15 01:02:49;;;;;;;65.93;27.63;;;;;;;1.09;100.00;100904.81;5069114;28;20407;-71
2021/01/15 01:05:14;;;;;;;82.83;65.23;;;;;;;1.10;100.00;100896.16;5069064;28;20203;-69
2021/01/15 01:07:43;;;;;;;59.80;25.33;;;;;;;1.17;100.00;100896.88;5069008;28;20211;-73
2021/01/15 01:10:10;;;;;;;68.50;37.57;;;;;;;1.20;100.00;100892.44;5069409;28;20191;-69
2021/01/15 01:12:43;;;;;;;62.63;31.27;;;;;;;1.17;100.00;100889.94;5058394;28;20415;-72
2021/01/15 01:15:11;;;;;;;55.83;26.23;;;;;;;1.15;100.00;100889.16;5062271;28;20433;-70
2021/01/15 01:17:37;;;;;;;68.37;38.47;;;;;;;1.16;100.00;100890.84;5069012;28;20838;-71
2021/01/15 01:20:04;;;;;;;74.80;54.93;;;;;;;1.13;100.00;100896.06;5054181;28;20402;-70
2021/01/15 01:22:30;;;;;;;82.60;53.07;;;;;;;1.15;100.00;100893.47;5049368;28;20465;-73
2021/01/15 01:24:56;;;;;;;61.30;27.10;;;;;;;1.12;100.00;100902.16;5054469;28;20439;-71
2021/01/15 01:27:21;;;;;;;76.73;45.03;;;;;;;1.12;100.00;100899.56;5049673;28;20244;-70
2021/01/15 01:29:47;;;;;;;85.30;70.77;;;;;;;1.19;100.00;100897.66;5049212;28;20157;-70
2021/01/15 01:32:12;;;;;;;81.10;67.90;;;;;;;1.20;100.00;100910.56;5050212;28;20169;-71
2021/01/15 01:34:38;;;;;;;74.27;51.87;;;;;;;1.12;100.00;100904.72;5050424;28;20157;-69
2021/01/15 01:37:03;;;;;;;66.57;27.33;;;;;;;1.12;100.00;100909.91;5050362;28;20636;-72
2021/01/15 01:39:29;;;;;;;88.80;67.80;;;;;;;1.13;100.00;100893.50;5061791;28;20207;-71
2021/01/15 01:41:54;;;;;;;74.60;44.17;;;;;;;1.12;100.00;100902.16;5050388;28;20228;-70
2021/01/15 01:44:20;;;;;;;76.37;45.53;;;;;;;1.14;100.00;100899.53;5050236;28;20181;-71
2021/01/15 01:46:46;;;;;;;78.97;66.53;;;;;;;1.14;100.00;100900.38;5050158;28;20161;-71
2021/01/15 01:49:12;;;;;;;63.53;30.17;;;;;;;1.14;100.00;100902.97;5050430;28;20248;-74
2021/01/15 01:51:38;;;;;;;72.43;42.53;;;;;;;1.14;100.00;100895.22;5050194;28;20411;-72
2021/01/15 01:54:04;;;;;;;68.73;27.13;;;;;;;1.10;100.00;100891.00;5049858;28;20769;-73
2021/01/15 01:56:29;;;;;;;68.03;24.80;;;;;;;1.07;100.00;100891.94;5050584;28;20612;-74
2021/01/15 01:58:56;;;;;;;64.03;26.60;;;;;;;1.00;100.00;100892.97;5049883;28;20921;-72
2021/01/15 02:01:22;;;;;;;64.83;29.40;;;;;;;0.89;100.00;100892.38;5050186;28;20193;-71
2021/01/15 02:03:57;;;;;;;63.00;28.30;;;;;;;0.88;100.00;100895.84;5049959;28;20413;-71
2021/01/15 02:06:23;;;;;;;61.50;30.57;;;;;;;0.88;100.00;100901.03;5060458;28;20434;-73
2021/01/15 02:08:49;;;;;;;63.03;22.53;;;;;;;0.88;100.00;100905.34;5068415;28;20425;-72
2021/01/15 02:11:41;;;;;;;78.07;55.20;;;;;;;1.00;100.00;100910.22;5068608;28;21041;-70
2021/01/15 02:14:10;;;;;;;62.83;25.97;;;;;;;1.09;100.00;100905.66;5070665;28;20592;-70
2021/01/15 02:16:36;;;;;;;66.47;30.90;;;;;;;1.11;100.00;100915.97;5070032;28;20457;-72
2021/01/15 02:19:26;;;;;;;66.20;25.37;;;;;;;1.15;100.00;100909.84;5055025;28;20407;-73
2021/01/15 02:21:58;;;;;;;69.73;32.37;;;;;;;1.23;100.00;100918.25;5072154;28;20453;-73
2021/01/15 02:24:35;;;;;;;65.90;30.47;;;;;;;1.29;100.00;100918.09;5070972;28;20548;-72
2021/01/15 02:27:30;;;;;;;83.53;57.27;;;;;;;1.32;100.00;100919.75;5053826;28;20457;-73
2021/01/15 02:30:08;;;;;;;61.80;20.70;;;;;;;1.33;100.00;100919.72;5054118;28;20396;-72
2021/01/15 02:32:43;;;;;;;78.67;58.13;;;;;;;1.36;100.00;100914.47;5071197;28;20426;-72
2021/01/15 02:35:15;;;;;;;61.10;22.47;;;;;;;1.32;100.00;100906.81;5055799;28;20789;-72
2021/01/15 02:38:14;;;;;;;65.93;27.53;;;;;;;1.31;100.00;100913.72;5072433;28;20434;-72
2021/01/15 02:40:49;;;;;;;88.00;67.03;;;;;;;1.39;100.00;100916.13;5069007;28;20474;-73
2021/01/15 02:43:16;;;;;;;87.90;69.10;;;;;;;1.39;100.00;100916.97;5073746;28;20528;-72
2021/01/15 02:45:42;;;;;;;61.60;26.77;;;;;;;1.37;100.00;100921.34;5073445;28;20497;-71
2021/01/15 02:48:14;;;;;;;70.67;27.27;;;;;;;1.36;100.00;100918.78;5073707;28;20387;-72
2021/01/15 02:50:39;;;;;;;75.83;33.77;;;;;;;1.35;100.00;100920.50;5073699;28;20528;-72
2021/01/15 02:53:06;;;;;;;112.27;100.80;;;;;;;1.38;100.00;100928.22;5073096;28;20504;-72
2021/01/15 02:55:32;;;;;;;106.57;95.73;;;;;;;1.40;100.00;100930.75;5062991;28;20200;-71
2021/01/15 02:57:57;;;;;;;66.93;23.77;;;;;;;1.44;100.00;100923.78;5018694;28;20423;-73
2021/01/15 03:00:23;;;;;;;84.43;58.27;;;;;;;1.42;100.00;100926.38;5053545;28;20200;-73
2021/01/15 03:03:07;;;;;;;87.67;64.63;;;;;;;1.43;100.00;100917.72;5053638;28;20777;-71
2021/01/15 03:05:39;;;;;;;81.13;51.20;;;;;;;1.42;100.00;100910.84;5066901;28;20454;-73
2021/01/15 03:08:06;;;;;;;68.23;24.90;;;;;;;1.43;100.00;100914.28;5072454;28;20784;-71
2021/01/15 03:10:33;;;;;;;76.63;63.03;;;;;;;1.42;100.00;100922.94;5072923;28;20401;-71
2021/01/15 03:13:01;;;;;;;81.13;69.40;;;;;;;1.43;100.00;100935.84;5070815;28;20395;-72
2021/01/15 03:15:29;;;;;;;97.60;82.70;;;;;;;1.39;100.00;100929.06;5052197;28;20428;-73
2021/01/15 03:17:56;;;;;;;92.13;82.30;;;;;;;1.48;100.00;100944.34;5053075;28;20786;-73
2021/01/15 03:20:23;;;;;;;76.30;54.17;;;;;;;1.48;100.00;100934.00;5072706;28;20441;-73
2021/01/15 03:22:49;;;;;;;147.17;133.40;;;;;;;1.48;100.00;100946.94;5071902;28;20391;-72
2021/01/15 03:25:17;;;;;;;84.83;65.57;;;;;;;1.48;100.00;100934.00;5071720;28;21093;-73
2021/01/15 03:27:51;;;;;;;67.60;27.97;;;;;;;1.46;100.00;100934.94;5072689;28;20847;-72
2021/01/15 03:30:21;;;;;;;78.60;56.77;;;;;;;1.31;100.00;100929.25;5069042;28;20792;-69
2021/01/15 03:32:49;;;;;;;91.77;82.60;;;;;;;1.11;100.00;100934.94;5064875;28;20411;-72
2021/01/15 03:35:24;;;;;;;66.90;26.67;;;;;;;0.94;100.00;100939.66;5072538;28;20402;-73
2021/01/15 03:37:59;;;;;;;91.17;77.53;;;;;;;0.89;100.00;100928.56;5072617;28;20867;-72
2021/01/15 03:40:27;;;;;;;79.33;71.00;;;;;;;0.82;100.00;100930.44;5071927;28;20446;-73
2021/01/15 03:42:52;;;;;;;57.13;40.30;;;;;;;0.78;100.00;100930.59;5073006;28;20768;-73
2021/01/15 03:45:18;;;;;;;66.77;25.83;;;;;;;0.67;100.00;100930.81;5059423;28;20431;-72
2021/01/15 03:47:44;;;;;;;114.87;103.67;;;;;;;0.64;100.00;100930.03;5059869;28;20603;-74
2021/01/15 03:50:10;;;;;;;75.00;43.97;;;;;;;0.60;100.00;100942.19;5069259;28;20169;-74
2021/01/15 03:52:36;;;;;;;65.03;23.40;;;;;;;0.51;100.00;100945.81;5052588;28;20176;-75
2021/01/15 03:55:02;;;;;;;67.17;29.43;;;;;;;0.53;100.00;100943.22;5053025;28;20411;-73
2021/01/15 03:57:28;;;;;;;90.50;78.77;;;;;;;0.49;100.00;100951.91;5052405;28;20172;-73
2021/01/15 03:59:53;;;;;;;66.10;52.47;;;;;;;0.47;100.00;100956.28;5052840;28;20789;-72
2021/01/15 04:02:18;;;;;;;82.83;51.57;;;;;;;0.44;100.00;100953.75;5052533;28;20263;-74
2021/01/15 04:04:48;;;;;;;72.43;44.27;;;;;;;0.43;100.00;100955.47;5061258;28;20172;-71
2021/01/15 04:07:17;;;;;;;88.30;76.57;;;;;;;0.39;100.00;100959.03;5072327;28;20538;-72
2021/01/15 04:09:43;;;;;;;55.00;39.37;;;;;;;0.33;100.00;100960.88;5063386;28;20408;-72
2021/01/15 04:12:12;;;;;;;77.23;52.90;;;;;;;0.30;100.00;100973.84;5070300;28;20943;-71
2021/01/15 04:14:40;;;;;;;75.73;37.53;;;;;;;0.25;100.00;100979.13;5069843;28;20405;-72
2021/01/15 04:17:05;;;;;;;70.00;54.80;;;;;;;0.37;100.00;100990.94;5052198;28;20461;-72
2021/01/15 04:19:31;;;;;;;83.43;61.33;;;;;;;0.40;100.00;100988.28;5052217;28;20423;-72
2021/01/15 04:21:56;;;;;;;84.97;67.17;;;;;;;0.28;100.00;100995.41;5061086;28;20587;-74
2021/01/15 04:24:23;;;;;;;92.70;83.10;;;;;;;0.38;100.00;100990.03;5066725;28;20231;-73
2021/01/15 04:26:56;;;;;;;93.57;83.50;;;;;;;0.31;100.00;100997.09;5066691;28;20216;-71
2021/01/15 04:29:22;;;;;;;103.50;93.83;;;;;;;0.34;100.00;101006.50;5052048;28;20403;-71
2021/01/15 04:31:48;;;;;;;92.13;76.23;;;;;;;0.29;100.00;101009.16;5064226;28;20460;-72
2021/01/15 04:34:14;;;;;;;76.87;49.60;;;;;;;0.23;100.00;101017.91;5071599;28;20486;-73
2021/01/15 04:36:41;;;;;;;89.43;62.53;;;;;;;0.20;100.00;101015.38;5067289;28;20435;-73
2021/01/15 04:39:06;;;;;;;156.20;142.53;;;;;;;0.21;100.00;101024.81;5051992;28;20410;-72
2021/01/15 04:41:32;;;;;;;100.60;90.90;;;;;;;0.21;100.00;101024.81;5051661;28;20486;-72
2021/01/15 04:43:58;;;;;;;102.67;91.80;;;;;;;0.23;100.00;101023.09;5051759;28;20168;-72
2021/01/15 04:46:24;;;;;;;86.50;75.90;;;;;;;0.19;100.00;101018.84;5051898;28;20477;-73
2021/01/15 04:48:51;;;;;;;69.33;62.07;;;;;;;0.22;100.00;101031.69;5056635;28;20610;-72
2021/01/15 04:51:19;;;;;;;90.67;79.23;;;;;;;0.16;100.00;101028.41;5071147;28;20484;-73
2021/01/15 04:54:08;;;;;;;70.90;48.37;;;;;;;0.15;100.00;101037.00;5071727;28;20403;-73
2021/01/15 04:56:33;;;;;;;74.83;44.40;;;;;;;0.13;100.00;101044.78;5068310;28;20934;-73
2021/01/15 04:59:02;;;;;;;83.40;62.17;;;;;;;0.10;100.00;101042.28;5051624;28;20404;-74
2021/01/15 05:01:38;;;;;;;123.73;111.77;;;;;;;0.15;100.00;101037.00;5051149;28;20205;-73
2021/01/15 05:04:09;;;;;;;115.13;101.67;;;;;;;0.14;100.00;101043.91;5051853;28;20994;-70
2021/01/15 05:06:49;;;;;;;88.00;66.70;;;;;;;0.11;100.00;101049.13;5062449;28;20461;-73
2021/01/15 05:09:19;;;;;;;74.37;52.83;;;;;;;0.09;100.00;101050.91;5033379;28;20421;-71
2021/01/15 05:11:46;;;;;;;88.83;80.10;;;;;;;0.05;100.00;101061.31;5051765;28;20869;-73
2021/01/15 05:14:16;;;;;;;86.80;75.70;;;;;;;0.08;100.00;101056.13;5033180;28;20432;-73
2021/01/15 05:16:44;;;;;;;57.63;42.73;;;;;;;0.07;100.00;101059.53;5051474;28;20917;-73
2021/01/15 05:19:11;;;;;;;111.73;99.97;;;;;;;0.08;100.00;101069.88;5051146;28;20395;-74
2021/01/15 05:21:38;;;;;;;77.63;59.70;;;;;;;0.06;100.00;101066.44;5060139;28;20541;-74
2021/01/15 05:24:06;;;;;;;43.20;31.23;;;;;;;0.06;100.00;101069.03;5056207;28;20439;-73
2021/01/15 05:26:38;;;;;;;61.50;47.43;;;;;;;0.07;100.00;101075.03;5050761;28;20810;-73
2021/01/15 05:29:06;;;;;;;205.90;189.53;;;;;;;-0.02;100.00;101082.06;5051006;28;20418;-73
2021/01/15 05:31:55;;;;;;;106.03;95.97;;;;;;;-0.01;100.00;101082.94;5059685;28;20494;-72
2021/01/15 05:34:22;;;;;;;89.20;74.77;;;;;;;-0.10;100.00;101078.78;5057938;28;20518;-73
2021/01/15 05:36:48;;;;;;;104.00;83.37;;;;;;;-0.15;100.00;101074.56;5065994;28;20420;-73
2021/01/15 05:39:19;;;;;;;51.20;42.63;;;;;;;-0.14;100.00;101065.97;5051806;28;20423;-72
2021/01/15 05:41:46;;;;;;;85.37;59.17;;;;;;;-0.22;100.00;101075.59;5070096;28;20188;-73
2021/01/15 05:44:31;;;;;;;37.53;18.17;;;;;;;-0.11;100.00;101068.47;5051956;28;20423;-72
2021/01/15 05:46:59;;;;;;;88.60;72.83;;;;;;;-0.11;100.00;101061.59;5071440;28;20991;-72
2021/01/15 05:49:26;;;;;;;81.77;56.60;;;;;;;-0.15;100.00;101069.41;5053706;28;20414;-73
2021/01/15 05:51:52;;;;;;;68.97;55.40;;;;;;;-0.16;100.00;101089.22;5061510;28;20498;-71
2021/01/15 05:54:32;;;;;;;62.50;52.87;;;;;;;-0.11;100.00;101108.06;5074830;28;20482;-75
2021/01/15 05:56:59;;;;;;;63.87;49.30;;;;;;;-0.12;100.00;101111.53;5074969;28;20160;-73
2021/01/15 05:59:25;;;;;;;86.40;59.50;;;;;;;-0.12;100.00;101114.09;5053248;28;20423;-72
2021/01/15 06:01:58;;;;;;;72.27;33.47;;;;;;;-0.15;100.00;101123.63;5073654;28;20527;-73
2021/01/15 06:04:34;;;;;;;84.17;52.07;;;;;;;-0.14;100.00;101128.78;5074535;28;20477;-74
2021/01/15 06:07:08;;;;;;;54.77;24.73;;;;;;;-0.12;100.00;101127.03;5067980;28;20453;-73
2021/01/15 06:09:35;;;;;;;94.50;85.17;;;;;;;-0.14;100.00;101126.19;5074261;28;20439;-73
2021/01/15 06:12:09;;;;;;;145.67;133.97;;;;;;;-0.08;100.00;101138.97;5072104;28;20780;-72
2021/01/15 06:14:57;;;;;;;89.30;74.17;;;;;;;-0.08;100.00;101128.66;5074198;28;20421;-73
2021/01/15 06:17:22;;;;;;;76.47;59.53;;;;;;;-0.07;100.00;101137.28;5060211;28;20417;-71
2021/01/15 06:19:55;;;;;;;87.87;71.77;;;;;;;-0.05;100.00;101143.28;5074373;28;20409;-72
2021/01/15 06:22:44;;;;;;;84.67;64.47;;;;;;;0.01;100.00;101157.81;5056855;28;20903;-74
2021/01/15 06:25:16;;;;;;;74.53;48.23;;;;;;;0.01;100.00;101158.66;5063792;28;20411;-72
2021/01/15 06:27:42;;;;;;;108.63;97.33;;;;;;;0.06;100.00;101158.56;5053526;28;20463;-69
2021/01/15 06:30:16;;;;;;;65.13;50.80;;;;;;;0.12;100.00;101163.63;5053973;28;20779;-70
2021/01/15 06:32:44;;;;;;;50.27;43.10;;;;;;;0.11;100.00;101173.13;5053726;28;20447;-71
2021/01/15 06:35:29;;;;;;;110.33;99.10;;;;;;;0.12;100.00;101177.41;5054696;28;20860;-74
2021/01/15 06:38:02;;;;;;;62.80;42.20;;;;;;;0.16;100.00;101184.25;5054095;28;20523;-71
2021/01/15 06:40:45;;;;;;;44.23;20.10;;;;;;;0.19;100.00;101184.19;5053437;28;20473;-73
2021/01/15 06:43:12;;;;;;;144.27;130.53;;;;;;;0.20;100.00;101193.63;5053741;28;20396;-73
2021/01/15 06:45:45;;;;;;;83.57;75.23;;;;;;;0.23;100.00;101205.66;5053706;28;20396;-74
2021/01/15 06:48:15;;;;;;;111.73;100.80;;;;;;;0.28;100.00;101207.25;5053946;28;20883;-72
2021/01/15 06:50:43;;;;;;;76.23;49.27;;;;;;;0.29;100.00;101208.13;5054639;28;20498;-73
2021/01/15 06:53:19;;;;;;;79.27;25.30;;;;;;;0.34;100.00;101208.03;5053316;28;20453;-75
2021/01/15 06:55:52;;;;;;;120.67;109.27;;;;;;;0.37;100.00;101219.16;5054434;28;20415;-72
2021/01/15 06:58:18;;;;;;;49.83;29.43;;;;;;;0.44;100.00;101215.59;5056424;28;20404;-71
2021/01/15 07:00:57;;;;;;;57.83;51.23;;;;;;;0.47;100.00;101215.56;5069045;28;20438;-73
2021/01/15 07:03:38;;;;;;;61.90;27.27;;;;;;;0.53;100.00;101224.94;5072255;28;20912;-73
2021/01/15 07:06:04;;;;;;;69.43;52.67;;;;;;;0.58;100.00;101232.59;5063694;28;20423;-71
2021/01/15 07:08:31;;;;;;;50.10;24.50;;;;;;;0.62;100.00;101232.53;5054103;28;20887;-70
2021/01/15 07:10:59;;;;;;;73.47;25.23;;;;;;;0.66;100.00;101235.91;5059519;28;20404;-74
2021/01/15 07:13:28;;;;;;;78.23;56.13;;;;;;;0.72;100.00;101234.06;5052811;28;20464;-73
2021/01/15 07:15:54;;;;;;;63.50;21.23;;;;;;;0.78;100.00;101249.47;5052828;28;20407;-72
2021/01/15 07:18:32;;;;;;;76.43;47.50;;;;;;;0.79;100.00;101248.59;5052744;28;20519;-72
2021/01/15 07:21:06;;;;;;;58.00;33.70;;;;;;;0.81;100.00;101245.97;5052990;28;20458;-72
2021/01/15 07:23:53;;;;;;;78.50;40.73;;;;;;;0.86;100.00;101248.47;5052512;28;20431;-72
2021/01/15 07:26:19;;;;;;;84.90;45.60;;;;;;;0.98;100.00;101258.56;5052706;28;20459;-71
2021/01/15 07:28:56;;;;;;;142.23;129.70;;;;;;;1.08;100.00;101263.56;5052513;28;20400;-72
2021/01/15 07:31:24;;;;;;;97.10;87.33;;;;;;;1.09;100.00;101257.50;5051581;28;20404;-72
2021/01/15 07:33:58;;;;;;;76.80;57.20;;;;;;;1.14;100.00;101269.50;5059500;28;20415;-73
2021/01/15 07:36:38;;;;;;;79.47;62.53;;;;;;;1.20;100.00;101274.53;5072649;28;20456;-71
2021/01/15 07:39:15;;;;;;;92.23;70.17;;;;;;;1.30;100.00;101276.94;5059488;28;20442;-70
2021/01/15 07:41:48;;;;;;;89.47;70.40;;;;;;;1.39;100.00;101274.16;5052667;28;20828;-71
2021/01/15 07:44:23;;;;;;;68.73;22.77;;;;;;;1.49;100.00;101282.59;5052360;28;20407;-71
2021/01/15 07:46:59;;;;;;;69.57;27.47;;;;;;;1.54;100.00;101285.09;5052597;28;20502;-71
2021/01/15 07:49:25;;;;;;;78.20;61.67;;;;;;;1.51;100.00;101292.91;5052274;28;20399;-70
2021/01/15 07:52:07;;;;;;;72.43;26.43;;;;;;;1.60;100.00;101290.16;5052977;28;20415;-72
2021/01/15 07:54:49;;;;;;;79.47;43.40;;;;;;;1.65;100.00;101293.47;5052320;28;20400;-73
2021/01/15 07:57:18;;;;;;;85.57;48.20;;;;;;;1.72;100.00;101294.19;5051925;28;20399;-71
2021/01/15 07:59:45;;;;;;;74.00;46.47;;;;;;;1.83;100.00;101298.28;5051889;28;20412;-70
2021/01/15 08:02:11;;;;;;;62.00;34.83;;;;;;;1.83;100.00;101305.19;5052085;28;20442;-73
2021/01/15 08:04:36;;;;;;;83.93;73.13;;;;;;;1.79;100.00;101312.16;5058112;28;20410;-71
2021/01/15 08:07:33;;;;;;;67.60;48.27;;;;;;;1.87;100.00;101322.38;5064133;28;20157;-72
2021/01/15 08:09:59;;;;;;;60.90;38.97;;;;;;;1.93;100.00;101327.41;5062933;28;20168;-73
2021/01/15 08:12:25;;;;;;;100.73;89.77;;;;;;;1.93;100.00;101330.84;5071309;28;20445;-72
2021/01/15 08:14:50;;;;;;;85.33;55.50;;;;;;;2.06;100.00;101333.19;5071908;28;20156;-70
2021/01/15 08:17:26;;;;;;;86.47;50.30;;;;;;;2.13;100.00;101332.19;5069828;28;20168;-72
2021/01/15 08:19:51;;;;;;;75.67;30.93;;;;;;;2.16;100.00;101334.69;5059448;28;20532;-74
2021/01/15 08:22:18;;;;;;;94.43;69.10;;;;;;;2.12;100.00;101336.50;5055247;28;20443;-71
2021/01/15 08:24:48;;;;;;;54.90;27.37;;;;;;;2.00;100.00;101334.19;5071285;28;20168;-74
2021/01/15 08:27:21;;;;;;;103.33;82.13;;;;;;;2.10;100.00;101345.19;5071271;28;20458;-73
2021/01/15 08:29:47;;;;;;;88.43;64.63;;;;;;;2.18;100.00;101340.69;5071407;28;20406;-73
2021/01/15 08:32:13;;;;;;;81.03;69.87;;;;;;;2.20;100.00;101349.28;5071695;28;20398;-71
2021/01/15 08:34:39;;;;;;;56.03;24.67;;;;;;;2.13;100.00;101342.53;5065653;28;20414;-75
2021/01/15 08:37:07;;;;;;;60.30;40.43;;;;;;;2.15;100.00;101343.34;5069456;28;20430;-73
2021/01/15 08:39:50;;;;;;;91.33;63.40;;;;;;;2.17;100.00;101338.97;5066407;28;20943;-72
2021/01/15 08:42:16;;;;;;;80.63;51.53;;;;;;;2.24;100.00;101335.34;5071410;28;20523;-72
2021/01/15 08:44:47;;;;;;;61.47;36.60;;;;;;;2.29;100.00;101343.91;5053041;28;20417;-74
2021/01/15 08:47:15;;;;;;;77.33;49.17;;;;;;;2.35;100.00;101348.94;5061331;28;20422;-73
2021/01/15 08:49:53;;;;;;;74.43;45.63;;;;;;;2.43;100.00;101347.03;5059770;28;20419;-74
2021/01/15 08:52:32;;;;;;;77.00;33.50;;;;;;;2.53;100.00;101349.41;5051814;28;20964;-73
2021/01/15 08:55:02;;;;;;;71.97;28.47;;;;;;;2.54;100.00;101345.91;5049391;28;20395;-74
2021/01/15 08:57:29;;;;;;;94.17;81.47;;;;;;;2.62;100.00;101342.25;5048950;28;20396;-74
2021/01/15 09:00:23;;;;;;;71.10;40.13;;;;;;;2.64;100.00;101349.97;5049154;28;20406;-76
2021/01/15 09:02:50;;;;;;;109.97;98.43;;;;;;;2.59;100.00;101352.69;5049032;28;20419;-73
2021/01/15 09:05:19;;;;;;;70.70;57.00;;;;;;;2.62;100.00;101352.63;5048996;28;20395;-74
2021/01/15 09:07:49;;;;;;;87.30;47.50;;;;;;;2.66;100.00;101356.84;5049168;28;20411;-73
2021/01/15 09:10:17;;;;;;;83.20;40.60;;;;;;;2.77;100.00;101343.59;5051052;28;20427;-72
2021/01/15 09:12:46;;;;;;;73.40;37.80;;;;;;;2.80;100.00;101348.75;5032904;28;20511;-72
2021/01/15 09:15:23;;;;;;;90.17;50.57;;;;;;;2.92;100.00;101347.56;5050953;28;20944;-72
2021/01/15 09:17:48;;;;;;;82.33;44.50;;;;;;;2.99;100.00;101349.09;5050624;28;20403;-72
2021/01/15 09:20:16;;;;;;;91.17;72.97;;;;;;;3.02;100.00;101349.03;5064574;28;20418;-73
2021/01/15 09:22:41;;;;;;;81.43;34.90;;;;;;;3.05;100.00;101348.97;5069067;28;20195;-73
2021/01/15 09:25:08;;;;;;;68.30;31.60;;;;;;;3.23;100.00;101365.78;5071487;28;20796;-73
2021/01/15 09:27:33;;;;;;;70.17;24.77;;;;;;;3.20;100.00;101363.28;5074975;28;20215;-73
2021/01/15 09:29:59;;;;;;;79.40;48.73;;;;;;;3.17;100.00;101358.16;5075146;28;20418;-73
2021/01/15 09:32:24;;;;;;;69.13;22.93;;;;;;;3.44;100.00;101349.63;5074891;28;20160;-74
2021/01/15 09:34:51;;;;;;;79.80;25.33;;;;;;;4.31;100.00;101349.69;5074469;28;20648;-73
2021/01/15 09:37:17;;;;;;;72.97;28.93;;;;;;;4.04;100.00;101350.53;5074461;28;20168;-74
2021/01/15 09:39:42;;;;;;;67.27;16.30;;;;;;;4.68;100.00;101351.09;5074590;28;20406;-74
2021/01/15 09:42:10;;;;;;;64.60;29.47;;;;;;;4.88;100.00;101347.88;5071185;28;20239;-73
2021/01/15 09:44:36;;;;;;;66.77;23.27;;;;;;;5.40;100.00;101348.69;5054181;28;20168;-73
2021/01/15 09:47:03;;;;;;;87.87;40.73;;;;;;;6.31;100.00;101334.84;5052835;28;20408;-72
2021/01/15 09:49:32;;;;;;;86.53;67.47;;;;;;;5.78;100.00;101348.13;5054588;28;20180;-69
2021/01/15 09:51:58;;;;;;;77.10;54.43;;;;;;;6.29;100.00;101343.63;5070539;28;20405;-71
2021/01/15 09:54:23;;;;;;;79.03;48.97;;;;;;;5.63;100.00;101351.31;5063461;28;20411;-75
2021/01/15 09:56:51;;;;;;;78.63;34.27;;;;;;;6.24;100.00;101348.19;5068716;28;20229;-71
2021/01/15 09:59:17;;;;;;;83.00;43.97;;;;;;;7.00;100.00;101339.84;5060698;28;20169;-74
2021/01/15 10:01:47;;;;;;;77.50;32.50;;;;;;;7.40;100.00;101335.50;5054853;28;20465;-73
2021/01/15 10:04:14;;;;;;;69.50;22.00;;;;;;;7.36;100.00;101342.66;5057848;28;20476;-71
2021/01/15 10:06:41;;;;;;;75.40;31.73;;;;;;;7.43;100.00;101332.78;5071740;28;20757;-73
2021/01/15 10:09:08;;;;;;;74.83;24.03;;;;;;;7.20;100.00;101331.16;5054100;28;20944;-73
2021/01/15 10:11:36;;;;;;;74.30;34.93;;;;;;;7.30;100.00;101326.38;5054917;28;20422;-72
2021/01/15 10:14:10;;;;;;;85.83;52.73;;;;;;;6.90;100.00;101328.94;5053602;28;20493;-72
2021/01/15 10:16:43;;;;;;;83.73;45.00;;;;;;;7.20;100.00;101336.41;5053433;28;20804;-75
2021/01/15 10:19:09;;;;;;;69.00;27.33;;;;;;;6.38;100.00;101340.66;5068559;28;20403;-72
2021/01/15 10:21:39;;;;;;;116.03;104.17;;;;;;;5.94;100.00;101342.38;5049140;28;20451;-73
2021/01/15 10:24:06;;;;;;;72.20;30.90;;;;;;;6.09;100.00;101339.19;5035803;28;20794;-70
2021/01/15 10:26:34;;;;;;;74.07;41.10;;;;;;;6.32;100.00;101338.28;5053088;28;20447;-71
2021/01/15 10:29:14;;;;;;;156.00;142.73;;;;;;;6.54;100.00;101333.91;5053733;28;20474;-74
2021/01/15 10:31:54;;;;;;;80.50;43.47;;;;;;;6.86;100.00;101332.59;5057902;28;20445;-71
2021/01/15 10:34:24;;;;;;;69.00;29.47;;;;;;;7.17;100.00;101328.66;5054607;28;20495;-70
2021/01/15 10:36:51;;;;;;;75.87;36.37;;;;;;;7.77;100.00;101316.41;5061193;28;20423;-73
2021/01/15 10:39:16;;;;;;;77.17;37.40;;;;;;;8.01;100.00;101314.41;5066366;28;20836;-74
2021/01/15 10:41:44;;;;;;;82.87;47.40;;;;;;;7.63;100.00;101314.44;5073499;28;20968;-72
2021/01/15 10:44:11;;;;;;;79.53;52.63;;;;;;;7.96;100.00;101314.66;5071730;28;20195;-71
2021/01/15 10:46:45;;;;;;;74.87;36.77;;;;;;;8.87;99.64;101298.88;5072821;28;20449;-73
2021/01/15 10:49:12;;;;;;;88.67;45.50;;;;;;;8.39;100.00;101301.31;5057456;28;20419;-71
2021/01/15 10:51:42;;;;;;;83.03;43.43;;;;;;;8.72;100.00;101290.97;5056841;28;20439;-70
2021/01/15 10:54:08;;;;;;;61.07;19.73;;;;;;;7.95;100.00;101286.78;5070897;28;20407;-70
2021/01/15 10:56:42;;;;;;;84.07;45.03;;;;;;;7.58;100.00;101292.88;5073118;28;20411;-75
2021/01/15 10:59:08;;;;;;;98.50;84.47;;;;;;;8.12;100.00;101274.66;5073108;28;20176;-73
2021/01/15 11:01:37;;;;;;;82.63;50.70;;;;;;;8.40;100.00;101284.69;5071716;28;20447;-71
2021/01/15 11:04:06;;;;;;;77.93;37.67;;;;;;;7.96;100.00;101283.25;5056180;28;20839;-70
2021/01/15 11:06:32;;;;;;;92.80;78.97;;;;;;;7.66;100.00;101276.84;5067898;28;20502;-71
2021/01/15 11:08:58;;;;;;;98.43;72.07;;;;;;;8.28;100.00;101271.22;5069380;28;20418;-71
2021/01/15 11:11:24;;;;;;;64.07;20.87;;;;;;;8.87;94.13;101269.22;5062552;28;20407;-70
2021/01/15 11:13:49;;;;;;;117.30;105.83;;;;;;;8.88;97.62;101266.50;5052677;28;20789;-71
2021/01/15 11:16:15;;;;;;;85.77;38.47;;;;;;;9.67;85.53;101261.47;5052565;28;20658;-70
2021/01/15 11:18:42;;;;;;;74.67;21.67;;;;;;;8.80;91.34;101267.84;5067842;28;20645;-70